sensor_id;sensor_type;location;lat;lon;timestamp;P1;durP1;ratioP1;P2;durP2;ratioP2
33738;SDS011;20063;51.730;11.110;2023-03-07T10:22:23;18.90;;;12.07;;
33738;SDS011;20063;51.730;11.110;2023-03-07T10:30:59;20.15;;;12.52;;
33738;SDS011;20063;51.730;11.110;2023-03-07T10:33:37;22.27;;;14.20;;
33738;SDS011;20063;51.730;11.110;2023-03-07T10:36:07;20.02;;;12.95;;
33738;SDS011;20063;51.730;11.110;2023-03-07T10:41:36;21.00;;;13.75;;
33738;SDS011;20063;51.730;11.110;2023-03-07T10:44:01;27.02;;;14.60;;
33738;SDS011;20063;51.730;11.110;2023-03-07T10:46:28;24.38;;;13.95;;
33738;SDS011;20063;51.730;11.110;2023-03-07T10:49:01;22.08;;;12.65;;
33738;SDS011;20063;51.730;11.110;2023-03-07T10:54:29;21.13;;;13.52;;
33738;SDS011;20063;51.730;11.110;2023-03-07T10:59:39;20.25;;;13.55;;
33738;SDS011;20063;51.730;11.110;2023-03-07T11:02:28;20.95;;;13.63;;
33738;SDS011;20063;51.730;11.110;2023-03-07T11:07:55;20.13;;;12.93;;
33738;SDS011;20063;51.730;11.110;2023-03-07T11:10:39;16.50;;;11.52;;
33738;SDS011;20063;51.730;11.110;2023-03-07T11:13:15;21.23;;;12.77;;
33738;SDS011;20063;51.730;11.110;2023-03-07T11:15:43;20.83;;;13.48;;
33738;SDS011;20063;51.730;11.110;2023-03-07T11:18:24;22.40;;;13.77;;
33738;SDS011;20063;51.730;11.110;2023-03-07T11:20:54;22.63;;;14.68;;
33738;SDS011;20063;51.730;11.110;2023-03-07T11:23:25;21.10;;;13.40;;
33738;SDS011;20063;51.730;11.110;2023-03-07T11:25:55;25.25;;;14.93;;
33738;SDS011;20063;51.730;11.110;2023-03-07T11:28:37;27.23;;;13.52;;
33738;SDS011;20063;51.730;11.110;2023-03-07T11:36:13;20.65;;;13.30;;
33738;SDS011;20063;51.730;11.110;2023-03-07T11:38:54;18.92;;;12.75;;
33738;SDS011;20063;51.730;11.110;2023-03-07T11:41:46;18.92;;;12.43;;
33738;SDS011;20063;51.730;11.110;2023-03-07T11:47:07;3.47;;;3.00;;
33738;SDS011;20063;51.730;11.110;2023-03-07T12:09:25;1.70;;;1.60;;
33738;SDS011;20063;51.730;11.110;2023-03-07T12:12:01;1.73;;;1.63;;
33738;SDS011;20063;51.730;11.110;2023-03-07T12:23:18;2.40;;;2.30;;
33738;SDS011;20063;51.730;11.110;2023-03-07T12:25:52;1.80;;;1.55;;
33738;SDS011;20063;51.730;11.110;2023-03-07T12:30:59;1.30;;;1.30;;
33738;SDS011;20063;51.730;11.110;2023-03-07T12:36:43;1.88;;;1.75;;
33738;SDS011;20063;51.730;11.110;2023-03-07T12:39:27;2.08;;;1.92;;
33738;SDS011;20063;51.730;11.110;2023-03-07T12:42:04;2.22;;;2.10;;
33738;SDS011;20063;51.730;11.110;2023-03-07T12:44:49;6.07;;;3.25;;
33738;SDS011;20063;51.730;11.110;2023-03-07T12:50:59;7.43;;;3.22;;
33738;SDS011;20063;51.730;11.110;2023-03-07T12:56:26;23.40;;;11.13;;
33738;SDS011;20063;51.730;11.110;2023-03-07T12:59:10;3.20;;;2.88;;
33738;SDS011;20063;51.730;11.110;2023-03-07T13:01:48;2.33;;;2.13;;
33738;SDS011;20063;51.730;11.110;2023-03-07T13:09:46;2.90;;;2.08;;
33738;SDS011;20063;51.730;11.110;2023-03-07T13:14:47;2.15;;;2.00;;
33738;SDS011;20063;51.730;11.110;2023-03-07T13:19:56;2.33;;;2.08;;
33738;SDS011;20063;51.730;11.110;2023-03-07T13:24:54;2.28;;;2.10;;
33738;SDS011;20063;51.730;11.110;2023-03-07T13:27:29;2.70;;;2.25;;
33738;SDS011;20063;51.730;11.110;2023-03-07T13:41:09;1.80;;;1.70;;
33738;SDS011;20063;51.730;11.110;2023-03-07T13:51:19;5.53;;;2.47;;
33738;SDS011;20063;51.730;11.110;2023-03-07T13:53:54;2.72;;;2.40;;
33738;SDS011;20063;51.730;11.110;2023-03-07T13:56:26;2.50;;;2.00;;
33738;SDS011;20063;51.730;11.110;2023-03-07T13:59:16;3.95;;;2.30;;
33738;SDS011;20063;51.730;11.110;2023-03-07T14:01:47;2.78;;;2.13;;
33738;SDS011;20063;51.730;11.110;2023-03-07T14:07:25;2.63;;;2.13;;
33738;SDS011;20063;51.730;11.110;2023-03-07T14:09:54;3.45;;;2.08;;
33738;SDS011;20063;51.730;11.110;2023-03-07T14:16:12;2.92;;;2.40;;
33738;SDS011;20063;51.730;11.110;2023-03-07T14:26:34;3.25;;;2.50;;
33738;SDS011;20063;51.730;11.110;2023-03-07T14:29:12;2.42;;;2.22;;
33738;SDS011;20063;51.730;11.110;2023-03-07T14:31:39;2.85;;;2.13;;
33738;SDS011;20063;51.730;11.110;2023-03-07T14:34:16;3.47;;;2.58;;
33738;SDS011;20063;51.730;11.110;2023-03-07T14:36:51;2.67;;;2.47;;
33738;SDS011;20063;51.730;11.110;2023-03-07T14:39:24;2.53;;;2.33;;
33738;SDS011;20063;51.730;11.110;2023-03-07T14:42:16;3.55;;;3.25;;
33738;SDS011;20063;51.730;11.110;2023-03-07T14:52:39;9.70;;;6.03;;
33738;SDS011;20063;51.730;11.110;2023-03-07T14:55:13;7.75;;;5.47;;
33738;SDS011;20063;51.730;11.110;2023-03-07T14:57:42;9.88;;;6.05;;
33738;SDS011;20063;51.730;11.110;2023-03-07T15:00:14;4.93;;;4.18;;
33738;SDS011;20063;51.730;11.110;2023-03-07T15:02:51;7.88;;;4.50;;
33738;SDS011;20063;51.730;11.110;2023-03-07T15:05:20;9.25;;;4.97;;
33738;SDS011;20063;51.730;11.110;2023-03-07T15:07:51;6.10;;;4.25;;
33738;SDS011;20063;51.730;11.110;2023-03-07T15:10:38;3.95;;;3.35;;
33738;SDS011;20063;51.730;11.110;2023-03-07T15:13:07;5.80;;;4.68;;
33738;SDS011;20063;51.730;11.110;2023-03-07T15:15:58;5.15;;;4.53;;
33738;SDS011;20063;51.730;11.110;2023-03-07T15:20:58;5.80;;;4.00;;
33738;SDS011;20063;51.730;11.110;2023-03-07T15:23:25;6.90;;;5.50;;
33738;SDS011;20063;51.730;11.110;2023-03-07T15:26:03;5.60;;;4.70;;
33738;SDS011;20063;51.730;11.110;2023-03-07T15:28:32;8.13;;;4.82;;
33738;SDS011;20063;51.730;11.110;2023-03-07T15:30:59;5.85;;;5.28;;
33738;SDS011;20063;51.730;11.110;2023-03-07T15:33:27;5.85;;;5.18;;
33738;SDS011;20063;51.730;11.110;2023-03-07T15:36:12;6.88;;;4.72;;
33738;SDS011;20063;51.730;11.110;2023-03-07T15:44:05;6.00;;;4.43;;
33738;SDS011;20063;51.730;11.110;2023-03-07T15:46:47;2.72;;;2.00;;
33738;SDS011;20063;51.730;11.110;2023-03-07T15:49:17;2.20;;;2.00;;
33738;SDS011;20063;51.730;11.110;2023-03-07T15:54:29;44.65;;;20.92;;
33738;SDS011;20063;51.730;11.110;2023-03-07T15:57:23;13.82;;;6.95;;
33738;SDS011;20063;51.730;11.110;2023-03-07T15:59:54;6.65;;;4.57;;
33738;SDS011;20063;51.730;11.110;2023-03-07T16:05:27;2.83;;;2.15;;
33738;SDS011;20063;51.730;11.110;2023-03-07T16:07:54;2.20;;;2.10;;
33738;SDS011;20063;51.730;11.110;2023-03-07T16:10:23;2.47;;;2.35;;
33738;SDS011;20063;51.730;11.110;2023-03-07T16:12:51;8.40;;;6.25;;
33738;SDS011;20063;51.730;11.110;2023-03-07T16:15:21;6.40;;;5.80;;
33738;SDS011;20063;51.730;11.110;2023-03-07T16:17:48;5.35;;;4.38;;
33738;SDS011;20063;51.730;11.110;2023-03-07T16:20:21;3.97;;;3.08;;
33738;SDS011;20063;51.730;11.110;2023-03-07T16:22:48;2.35;;;2.17;;
33738;SDS011;20063;51.730;11.110;2023-03-07T16:25:14;3.10;;;2.33;;
33738;SDS011;20063;51.730;11.110;2023-03-07T16:27:42;8.85;;;4.10;;
33738;SDS011;20063;51.730;11.110;2023-03-07T16:30:12;7.68;;;3.80;;
33738;SDS011;20063;51.730;11.110;2023-03-07T16:32:41;12.70;;;6.45;;
33738;SDS011;20063;51.730;11.110;2023-03-07T16:35:14;11.90;;;6.03;;
33738;SDS011;20063;51.730;11.110;2023-03-07T16:37:48;11.90;;;5.93;;
33738;SDS011;20063;51.730;11.110;2023-03-07T16:40:14;14.52;;;6.78;;
33738;SDS011;20063;51.730;11.110;2023-03-07T16:42:41;11.85;;;6.40;;
33738;SDS011;20063;51.730;11.110;2023-03-07T16:45:13;17.75;;;7.03;;
33738;SDS011;20063;51.730;11.110;2023-03-07T16:47:42;25.85;;;10.00;;
33738;SDS011;20063;51.730;11.110;2023-03-07T16:50:12;16.75;;;7.75;;
33738;SDS011;20063;51.730;11.110;2023-03-07T16:52:41;20.83;;;8.18;;
33738;SDS011;20063;51.730;11.110;2023-03-07T16:55:08;14.98;;;6.28;;
33738;SDS011;20063;51.730;11.110;2023-03-07T16:57:36;8.30;;;4.72;;
33738;SDS011;20063;51.730;11.110;2023-03-07T17:00:02;10.52;;;5.45;;
33738;SDS011;20063;51.730;11.110;2023-03-07T17:02:30;6.35;;;3.50;;
33738;SDS011;20063;51.730;11.110;2023-03-07T17:04:56;5.50;;;3.30;;
33738;SDS011;20063;51.730;11.110;2023-03-07T17:07:21;3.60;;;2.92;;
33738;SDS011;20063;51.730;11.110;2023-03-07T17:09:47;4.38;;;2.80;;
33738;SDS011;20063;51.730;11.110;2023-03-07T17:12:14;2.85;;;2.47;;
33738;SDS011;20063;51.730;11.110;2023-03-07T17:14:40;3.47;;;2.63;;
33738;SDS011;20063;51.730;11.110;2023-03-07T17:17:08;3.42;;;2.60;;
33738;SDS011;20063;51.730;11.110;2023-03-07T17:19:40;4.68;;;3.30;;
33738;SDS011;20063;51.730;11.110;2023-03-07T17:22:06;3.95;;;3.38;;
33738;SDS011;20063;51.730;11.110;2023-03-07T17:24:33;4.53;;;3.70;;
33738;SDS011;20063;51.730;11.110;2023-03-07T17:26:59;3.80;;;3.40;;
33738;SDS011;20063;51.730;11.110;2023-03-07T17:29:46;3.40;;;2.90;;
33738;SDS011;20063;51.730;11.110;2023-03-07T17:32:18;5.45;;;2.95;;
33738;SDS011;20063;51.730;11.110;2023-03-07T17:34:44;5.72;;;3.17;;
33738;SDS011;20063;51.730;11.110;2023-03-07T17:37:09;3.67;;;2.97;;
33738;SDS011;20063;51.730;11.110;2023-03-07T17:39:36;6.82;;;3.38;;
33738;SDS011;20063;51.730;11.110;2023-03-07T17:42:03;4.43;;;3.05;;
33738;SDS011;20063;51.730;11.110;2023-03-07T17:44:29;4.15;;;3.20;;
33738;SDS011;20063;51.730;11.110;2023-03-07T17:46:55;8.38;;;3.72;;
33738;SDS011;20063;51.730;11.110;2023-03-07T17:49:22;9.13;;;4.80;;
33738;SDS011;20063;51.730;11.110;2023-03-07T17:51:48;5.68;;;5.18;;
33738;SDS011;20063;51.730;11.110;2023-03-07T17:54:14;5.80;;;4.15;;
33738;SDS011;20063;51.730;11.110;2023-03-07T17:56:40;5.70;;;4.13;;
33738;SDS011;20063;51.730;11.110;2023-03-07T17:59:06;4.18;;;3.78;;
33738;SDS011;20063;51.730;11.110;2023-03-07T18:01:32;4.28;;;3.10;;
33738;SDS011;20063;51.730;11.110;2023-03-07T18:04:08;2.67;;;2.47;;
33738;SDS011;20063;51.730;11.110;2023-03-07T18:06:34;3.95;;;2.85;;
33738;SDS011;20063;51.730;11.110;2023-03-07T18:09:00;2.08;;;1.98;;
33738;SDS011;20063;51.730;11.110;2023-03-07T18:11:29;3.75;;;2.20;;
33738;SDS011;20063;51.730;11.110;2023-03-07T18:13:55;3.10;;;1.70;;
33738;SDS011;20063;51.730;11.110;2023-03-07T18:16:21;2.05;;;1.75;;
33738;SDS011;20063;51.730;11.110;2023-03-07T18:18:46;6.40;;;2.22;;
33738;SDS011;20063;51.730;11.110;2023-03-07T18:21:13;11.57;;;2.40;;
33738;SDS011;20063;51.730;11.110;2023-03-07T18:23:40;3.05;;;1.73;;
33738;SDS011;20063;51.730;11.110;2023-03-07T18:26:07;3.60;;;2.00;;
33738;SDS011;20063;51.730;11.110;2023-03-07T18:28:36;9.00;;;2.70;;
33738;SDS011;20063;51.730;11.110;2023-03-07T18:31:04;12.73;;;2.53;;
33738;SDS011;20063;51.730;11.110;2023-03-07T18:33:33;5.05;;;2.20;;
33738;SDS011;20063;51.730;11.110;2023-03-07T18:36:00;8.57;;;2.65;;
33738;SDS011;20063;51.730;11.110;2023-03-07T18:38:26;10.98;;;2.45;;
33738;SDS011;20063;51.730;11.110;2023-03-07T18:41:01;4.10;;;2.15;;
33738;SDS011;20063;51.730;11.110;2023-03-07T18:43:28;3.65;;;2.15;;
33738;SDS011;20063;51.730;11.110;2023-03-07T18:45:54;8.35;;;2.35;;
33738;SDS011;20063;51.730;11.110;2023-03-07T18:48:19;5.22;;;2.40;;
33738;SDS011;20063;51.730;11.110;2023-03-07T18:50:53;9.38;;;2.63;;
33738;SDS011;20063;51.730;11.110;2023-03-07T18:53:20;14.98;;;3.10;;
33738;SDS011;20063;51.730;11.110;2023-03-07T18:55:48;10.82;;;2.92;;
33738;SDS011;20063;51.730;11.110;2023-03-07T18:58:14;4.45;;;2.30;;
33738;SDS011;20063;51.730;11.110;2023-03-07T19:00:39;6.38;;;2.38;;
33738;SDS011;20063;51.730;11.110;2023-03-07T19:03:05;5.68;;;2.22;;
33738;SDS011;20063;51.730;11.110;2023-03-07T19:05:30;2.55;;;1.90;;
33738;SDS011;20063;51.730;11.110;2023-03-07T19:07:56;9.18;;;3.47;;
33738;SDS011;20063;51.730;11.110;2023-03-07T19:10:21;10.10;;;2.63;;
33738;SDS011;20063;51.730;11.110;2023-03-07T19:12:47;8.05;;;2.65;;
33738;SDS011;20063;51.730;11.110;2023-03-07T19:15:13;5.10;;;3.00;;
33738;SDS011;20063;51.730;11.110;2023-03-07T19:17:39;9.60;;;2.80;;
33738;SDS011;20063;51.730;11.110;2023-03-07T19:20:05;10.05;;;3.15;;
33738;SDS011;20063;51.730;11.110;2023-03-07T19:22:31;15.00;;;4.35;;
33738;SDS011;20063;51.730;11.110;2023-03-07T19:24:57;16.20;;;3.70;;
33738;SDS011;20063;51.730;11.110;2023-03-07T19:27:30;7.43;;;2.90;;
33738;SDS011;20063;51.730;11.110;2023-03-07T19:29:57;10.20;;;2.78;;
33738;SDS011;20063;51.730;11.110;2023-03-07T19:32:22;8.50;;;3.17;;
33738;SDS011;20063;51.730;11.110;2023-03-07T19:34:48;9.43;;;3.95;;
33738;SDS011;20063;51.730;11.110;2023-03-07T19:37:14;7.53;;;2.83;;
33738;SDS011;20063;51.730;11.110;2023-03-07T19:39:40;12.68;;;3.17;;
33738;SDS011;20063;51.730;11.110;2023-03-07T19:42:05;4.03;;;2.30;;
33738;SDS011;20063;51.730;11.110;2023-03-07T19:44:31;26.77;;;10.25;;
33738;SDS011;20063;51.730;11.110;2023-03-07T19:46:56;28.52;;;9.35;;
33738;SDS011;20063;51.730;11.110;2023-03-07T19:49:22;10.65;;;3.20;;
33738;SDS011;20063;51.730;11.110;2023-03-07T19:51:50;9.18;;;4.47;;
33738;SDS011;20063;51.730;11.110;2023-03-07T19:54:16;12.77;;;6.85;;
33738;SDS011;20063;51.730;11.110;2023-03-07T19:56:41;22.27;;;7.85;;
33738;SDS011;20063;51.730;11.110;2023-03-07T19:59:09;6.03;;;3.55;;
33738;SDS011;20063;51.730;11.110;2023-03-07T20:01:35;9.00;;;4.45;;
33738;SDS011;20063;51.730;11.110;2023-03-07T20:04:01;13.35;;;4.57;;
33738;SDS011;20063;51.730;11.110;2023-03-07T20:06:29;28.10;;;11.60;;
33738;SDS011;20063;51.730;11.110;2023-03-07T20:08:55;43.28;;;16.50;;
33738;SDS011;20063;51.730;11.110;2023-03-07T20:11:23;40.05;;;15.20;;
33738;SDS011;20063;51.730;11.110;2023-03-07T20:13:52;42.45;;;16.52;;
33738;SDS011;20063;51.730;11.110;2023-03-07T20:16:19;20.17;;;7.15;;
33738;SDS011;20063;51.730;11.110;2023-03-07T20:18:48;23.33;;;8.30;;
33738;SDS011;20063;51.730;11.110;2023-03-07T20:21:15;49.03;;;17.45;;
33738;SDS011;20063;51.730;11.110;2023-03-07T20:23:42;83.38;;;28.00;;
33738;SDS011;20063;51.730;11.110;2023-03-07T20:26:10;48.47;;;16.35;;
33738;SDS011;20063;51.730;11.110;2023-03-07T20:28:38;22.38;;;6.82;;
33738;SDS011;20063;51.730;11.110;2023-03-07T20:31:04;10.63;;;5.53;;
33738;SDS011;20063;51.730;11.110;2023-03-07T20:33:37;13.48;;;5.07;;
33738;SDS011;20063;51.730;11.110;2023-03-07T20:36:09;10.68;;;5.22;;
33738;SDS011;20063;51.730;11.110;2023-03-07T20:38:49;5.65;;;2.78;;
33738;SDS011;20063;51.730;11.110;2023-03-07T20:41:16;7.30;;;3.72;;
33738;SDS011;20063;51.730;11.110;2023-03-07T20:43:44;10.63;;;4.18;;
33738;SDS011;20063;51.730;11.110;2023-03-07T20:46:11;6.70;;;3.40;;
33738;SDS011;20063;51.730;11.110;2023-03-07T20:48:38;4.68;;;2.42;;
33738;SDS011;20063;51.730;11.110;2023-03-07T20:51:20;6.18;;;2.45;;
33738;SDS011;20063;51.730;11.110;2023-03-07T20:53:48;3.33;;;2.10;;
33738;SDS011;20063;51.730;11.110;2023-03-07T20:56:15;6.32;;;2.50;;
33738;SDS011;20063;51.730;11.110;2023-03-07T20:58:42;8.98;;;2.58;;
33738;SDS011;20063;51.730;11.110;2023-03-07T21:01:08;4.50;;;2.15;;
33738;SDS011;20063;51.730;11.110;2023-03-07T21:03:35;7.05;;;2.00;;
33738;SDS011;20063;51.730;11.110;2023-03-07T21:06:02;8.32;;;2.40;;
33738;SDS011;20063;51.730;11.110;2023-03-07T21:08:30;6.22;;;2.20;;
33738;SDS011;20063;51.730;11.110;2023-03-07T21:10:59;6.70;;;2.08;;
33738;SDS011;20063;51.730;11.110;2023-03-07T21:13:26;3.13;;;1.95;;
33738;SDS011;20063;51.730;11.110;2023-03-07T21:15:53;4.05;;;2.10;;
33738;SDS011;20063;51.730;11.110;2023-03-07T21:18:23;5.38;;;2.75;;
33738;SDS011;20063;51.730;11.110;2023-03-07T21:20:49;4.65;;;3.05;;
33738;SDS011;20063;51.730;11.110;2023-03-07T21:23:15;3.25;;;2.47;;
33738;SDS011;20063;51.730;11.110;2023-03-07T21:25:41;7.30;;;2.20;;
33738;SDS011;20063;51.730;11.110;2023-03-07T21:28:08;8.88;;;2.35;;
33738;SDS011;20063;51.730;11.110;2023-03-07T21:30:34;6.30;;;2.67;;
33738;SDS011;20063;51.730;11.110;2023-03-07T21:33:00;4.75;;;2.22;;
33738;SDS011;20063;51.730;11.110;2023-03-07T21:35:26;7.03;;;2.67;;
33738;SDS011;20063;51.730;11.110;2023-03-07T21:37:51;4.65;;;2.38;;
33738;SDS011;20063;51.730;11.110;2023-03-07T21:40:17;5.78;;;2.47;;
33738;SDS011;20063;51.730;11.110;2023-03-07T21:42:45;5.85;;;1.77;;
33738;SDS011;20063;51.730;11.110;2023-03-07T21:45:11;5.82;;;2.10;;
33738;SDS011;20063;51.730;11.110;2023-03-07T21:47:38;13.82;;;2.28;;
33738;SDS011;20063;51.730;11.110;2023-03-07T21:50:04;4.38;;;1.90;;
33738;SDS011;20063;51.730;11.110;2023-03-07T21:52:30;10.38;;;2.20;;
33738;SDS011;20063;51.730;11.110;2023-03-07T21:54:55;7.30;;;2.20;;
33738;SDS011;20063;51.730;11.110;2023-03-07T21:57:21;7.97;;;1.92;;
33738;SDS011;20063;51.730;11.110;2023-03-07T21:59:46;6.70;;;1.70;;
33738;SDS011;20063;51.730;11.110;2023-03-07T22:02:13;4.03;;;1.80;;
33738;SDS011;20063;51.730;11.110;2023-03-07T22:04:39;4.50;;;1.85;;
33738;SDS011;20063;51.730;11.110;2023-03-07T22:07:04;5.15;;;1.83;;
33738;SDS011;20063;51.730;11.110;2023-03-07T22:09:30;5.18;;;1.73;;
33738;SDS011;20063;51.730;11.110;2023-03-07T22:11:56;5.63;;;1.73;;
33738;SDS011;20063;51.730;11.110;2023-03-07T22:14:21;6.88;;;1.77;;
33738;SDS011;20063;51.730;11.110;2023-03-07T22:16:48;14.80;;;3.10;;
33738;SDS011;20063;51.730;11.110;2023-03-07T22:19:13;9.05;;;2.10;;
33738;SDS011;20063;51.730;11.110;2023-03-07T22:21:39;6.45;;;1.98;;
33738;SDS011;20063;51.730;11.110;2023-03-07T22:24:04;9.23;;;1.95;;
33738;SDS011;20063;51.730;11.110;2023-03-07T22:26:30;7.70;;;1.70;;
33738;SDS011;20063;51.730;11.110;2023-03-07T22:28:57;12.80;;;2.95;;
33738;SDS011;20063;51.730;11.110;2023-03-07T22:31:23;11.70;;;2.35;;
33738;SDS011;20063;51.730;11.110;2023-03-07T22:33:49;5.07;;;1.90;;
33738;SDS011;20063;51.730;11.110;2023-03-07T22:36:15;7.43;;;1.98;;
33738;SDS011;20063;51.730;11.110;2023-03-07T22:38:40;5.60;;;1.98;;
33738;SDS011;20063;51.730;11.110;2023-03-07T22:41:11;6.68;;;1.70;;
33738;SDS011;20063;51.730;11.110;2023-03-07T22:43:39;6.13;;;1.80;;
33738;SDS011;20063;51.730;11.110;2023-03-07T22:46:06;9.68;;;1.95;;
33738;SDS011;20063;51.730;11.110;2023-03-07T22:48:32;3.13;;;1.75;;
33738;SDS011;20063;51.730;11.110;2023-03-07T22:50:58;5.57;;;2.28;;
33738;SDS011;20063;51.730;11.110;2023-03-07T22:53:27;6.07;;;1.88;;
33738;SDS011;20063;51.730;11.110;2023-03-07T22:55:55;7.50;;;1.83;;
33738;SDS011;20063;51.730;11.110;2023-03-07T22:58:23;5.88;;;1.95;;
33738;SDS011;20063;51.730;11.110;2023-03-07T23:00:49;14.55;;;2.10;;
33738;SDS011;20063;51.730;11.110;2023-03-07T23:03:14;6.65;;;2.17;;
33738;SDS011;20063;51.730;11.110;2023-03-07T23:05:40;4.85;;;2.70;;
33738;SDS011;20063;51.730;11.110;2023-03-07T23:08:06;15.18;;;1.83;;
33738;SDS011;20063;51.730;11.110;2023-03-07T23:10:31;9.45;;;2.25;;
33738;SDS011;20063;51.730;11.110;2023-03-07T23:12:58;13.18;;;2.33;;
33738;SDS011;20063;51.730;11.110;2023-03-07T23:15:23;3.97;;;2.65;;
33738;SDS011;20063;51.730;11.110;2023-03-07T23:17:49;18.17;;;2.35;;
33738;SDS011;20063;51.730;11.110;2023-03-07T23:20:15;10.57;;;2.10;;
33738;SDS011;20063;51.730;11.110;2023-03-07T23:22:43;9.45;;;2.47;;
33738;SDS011;20063;51.730;11.110;2023-03-07T23:25:09;3.10;;;1.58;;
33738;SDS011;20063;51.730;11.110;2023-03-07T23:27:35;4.40;;;1.73;;
33738;SDS011;20063;51.730;11.110;2023-03-07T23:30:04;5.95;;;2.13;;
33738;SDS011;20063;51.730;11.110;2023-03-07T23:32:30;6.85;;;1.80;;
33738;SDS011;20063;51.730;11.110;2023-03-07T23:34:55;6.43;;;1.92;;
33738;SDS011;20063;51.730;11.110;2023-03-07T23:37:21;7.55;;;1.80;;
33738;SDS011;20063;51.730;11.110;2023-03-07T23:39:47;7.43;;;1.55;;
33738;SDS011;20063;51.730;11.110;2023-03-07T23:42:14;2.13;;;1.40;;
33738;SDS011;20063;51.730;11.110;2023-03-07T23:44:40;5.07;;;1.90;;
33738;SDS011;20063;51.730;11.110;2023-03-07T23:47:06;6.65;;;2.95;;
33738;SDS011;20063;51.730;11.110;2023-03-07T23:49:32;5.75;;;1.70;;
33738;SDS011;20063;51.730;11.110;2023-03-07T23:51:58;4.72;;;2.05;;
33738;SDS011;20063;51.730;11.110;2023-03-07T23:54:24;3.92;;;1.70;;
33738;SDS011;20063;51.730;11.110;2023-03-07T23:56:49;4.43;;;3.20;;
33738;SDS011;20063;51.730;11.110;2023-03-07T23:59:15;2.38;;;1.80;;
